Swansea, California
Current Conditions -  °F | °C
As of 4:56 AM on Saturday 25 Oct 2014 (Local Time) from KBIH Reporting Station
Clear Clear  
Wind Chill: 64°   Ceiling: Unl
Heat Index: 64°   Visibility: 10mi
Dew Point: 27°   Wind: 21mph
Humidity: 25%   Direction: 150°SSE
Pressure: 29.96"   Gusts: 25mph
Location:  36.6126°N, 118.162°W
Report Text: KBIH 251156Z AUTO 15018G22KT 10SM CLR 18/M03 A2996 RMK AO2 SLP097 T01781028 10217 20172 56013
Loading
Personal Weather Stations






























Interactive Weather Map
Tropical Storm Tracking
New forecast layout! Learn more

10-Day Weather Forecast

Advertisements
Track Severe Weather on mobile